Terminal Aerodrome Forecast
Issued by NWS

Home | Current Version | Previous Version | Text Only | Print | Product List | Glossary On
Versions: 1 2 3 4 5 6 7 8 9 10 11 12 13 14 15 16 17 18 19 20 21 22 23 24
278
FTUS41 KBUF 302320
TAFIAG
TAF
KIAG 302320Z 3100/3124 06010KT P6SM FEW040 BKN250
     FM310400 08007KT P6SM BKN100
     FM310600 07007KT P6SM VCSH BKN040
     FM311200 06010KT 6SM -SHRA BKN015
     FM311600 06010KT P6SM VCSH BKN012
     FM312100 07012KT P6SM BKN025=

USA.gov is the U.S. government's official web portal to all federal, state and local government web resources and services.